createdAt,value
2018-01-26T00:00:34.097Z,0
2018-01-26T00:01:34.079Z,0
2018-01-26T00:02:34.100Z,0
2018-01-26T00:03:33.532Z,0
2018-01-26T00:04:33.756Z,0
2018-01-26T00:05:33.971Z,0
2018-01-26T00:06:33.699Z,0
2018-01-26T00:07:33.934Z,0
2018-01-26T00:08:33.654Z,0
2018-01-26T00:09:33.728Z,0
2018-01-26T00:10:33.839Z,0
2018-01-26T00:11:33.820Z,0
2018-01-26T00:12:33.554Z,0
2018-01-26T00:13:33.774Z,0
2018-01-26T00:14:33.744Z,0
2018-01-26T00:15:33.475Z,0
2018-01-26T00:16:33.707Z,0
2018-01-26T00:17:33.416Z,0
2018-01-26T00:18:33.398Z,0
2018-01-26T00:19:33.366Z,0
2018-01-26T00:20:33.345Z,0
2018-01-26T00:21:33.564Z,0
2018-01-26T00:22:33.545Z,0
2018-01-26T00:23:33.274Z,0
2018-01-26T00:24:33.239Z,0
2018-01-26T00:25:33.455Z,0
2018-01-26T00:26:33.484Z,0
2018-01-26T00:27:33.165Z,0
2018-01-26T00:28:33.379Z,0
2018-01-26T00:29:33.110Z,0
2018-01-26T00:30:33.331Z,0
2018-01-26T00:31:33.064Z,0
2018-01-26T00:32:33.285Z,0
2018-01-26T00:33:33.013Z,0
2018-01-26T00:34:33.231Z,0
2018-01-26T00:35:32.952Z,0
2018-01-26T00:36:32.982Z,0
2018-01-26T00:37:33.165Z,0
2018-01-26T00:38:32.395Z,0
2018-01-26T00:39:33.114Z,0
2018-01-26T00:40:32.844Z,0
2018-01-26T00:41:32.815Z,0
2018-01-26T00:42:32.535Z,0
2018-01-26T00:43:33.053Z,0
2018-01-26T00:44:32.977Z,0
2018-01-26T00:45:32.948Z,0
2018-01-26T00:46:32.680Z,0
2018-01-26T00:47:32.647Z,0
2018-01-26T00:48:32.873Z,0
2018-01-26T00:49:32.349Z,0
2018-01-26T00:50:32.574Z,0
2018-01-26T00:51:32.824Z,0
2018-01-26T00:52:32.526Z,0
2018-01-26T00:53:32.745Z,0
2018-01-26T00:54:32.234Z,0
2018-01-26T00:55:32.697Z,0
2018-01-26T00:56:32.666Z,0
2018-01-26T00:57:32.634Z,0
2018-01-26T00:58:32.610Z,0
2018-01-26T00:59:32.588Z,0
2018-01-26T01:00:32.561Z,0
2018-01-26T01:01:32.540Z,0
2018-01-26T01:02:32.264Z,0
2018-01-26T01:03:32.488Z,0
2018-01-26T01:04:32.214Z,0
2018-01-26T01:05:32.188Z,0
2018-01-26T01:06:31.921Z,0
2018-01-26T01:07:32.385Z,0
2018-01-26T01:08:32.363Z,0
2018-01-26T01:09:31.837Z,0
2018-01-26T01:10:32.308Z,0
2018-01-26T01:11:32.292Z,0
2018-01-26T01:12:32.254Z,0
2018-01-26T01:13:32.231Z,0
2018-01-26T01:14:32.208Z,0
2018-01-26T01:15:31.938Z,0
2018-01-26T01:16:31.661Z,0
2018-01-26T01:17:32.128Z,0
2018-01-26T01:18:32.098Z,0
2018-01-26T01:19:31.586Z,0
2018-01-26T01:20:31.810Z,0
2018-01-26T01:21:31.289Z,0
2018-01-26T01:22:32.005Z,0
2018-01-26T01:23:31.726Z,0
2018-01-26T01:24:31.983Z,0
2018-01-26T01:25:31.433Z,0
2018-01-26T01:26:31.693Z,0
2018-01-26T01:27:31.626Z,0
2018-01-26T01:28:31.846Z,0
2018-01-26T01:29:31.819Z,0
2018-01-26T01:30:31.789Z,0
2018-01-26T01:31:31.770Z,0
2018-01-26T01:32:31.743Z,0
2018-01-26T01:33:31.716Z,0
2018-01-26T01:34:31.685Z,0
2018-01-26T01:35:31.423Z,0
2018-01-26T01:36:31.639Z,0
2018-01-26T01:37:31.370Z,0
2018-01-26T01:38:31.590Z,0
2018-01-26T01:39:31.321Z,0
2018-01-26T01:40:31.535Z,0
2018-01-26T01:41:31.510Z,0
2018-01-26T01:42:31.487Z,0
2018-01-26T01:43:31.461Z,0
2018-01-26T01:44:30.946Z,0
2018-01-26T01:45:31.412Z,0
2018-01-26T01:46:31.135Z,0
2018-01-26T01:47:31.114Z,0
2018-01-26T01:48:31.376Z,0
2018-01-26T01:49:31.305Z,0
2018-01-26T01:50:31.283Z,0
2018-01-26T01:51:31.061Z,0
2018-01-26T01:52:31.243Z,0
2018-01-26T01:53:31.211Z,0
2018-01-26T01:54:30.929Z,0
2018-01-26T01:55:31.158Z,0
2018-01-26T01:56:31.122Z,0
2018-01-26T01:57:31.096Z,0
2018-01-26T01:58:31.073Z,0
2018-01-26T01:59:31.050Z,0
2018-01-26T02:00:30.774Z,0
2018-01-26T02:01:30.997Z,0
2018-01-26T02:02:30.724Z,0
2018-01-26T02:03:30.940Z,0
2018-01-26T02:04:30.919Z,0
2018-01-26T02:05:30.699Z,0
2018-01-26T02:06:30.864Z,0
2018-01-26T02:07:30.596Z,0
2018-01-26T02:08:30.810Z,0
2018-01-26T02:09:30.797Z,0
2018-01-26T02:10:30.513Z,0
2018-01-26T02:11:30.737Z,0
2018-01-26T02:12:30.463Z,0
2018-01-26T02:13:30.692Z,0
2018-01-26T02:14:30.664Z,0
2018-01-26T02:15:30.142Z,0
2018-01-26T02:16:30.367Z,0
2018-01-26T02:17:30.342Z,0
2018-01-26T02:18:30.313Z,0
2018-01-26T02:19:30.537Z,0
2018-01-26T02:20:30.506Z,0
2018-01-26T02:21:30.485Z,0
2018-01-26T02:22:30.465Z,0
2018-01-26T02:23:30.430Z,0
2018-01-26T02:24:29.911Z,0
2018-01-26T02:25:30.379Z,0
2018-01-26T02:26:30.352Z,0
2018-01-26T02:27:30.078Z,0
2018-01-26T02:28:30.055Z,0
2018-01-26T02:29:29.790Z,0
2018-01-26T02:30:30.020Z,0
2018-01-26T02:31:29.981Z,0
2018-01-26T02:32:30.209Z,0
2018-01-26T02:33:30.174Z,0
2018-01-26T02:34:29.661Z,0
2018-01-26T02:35:29.733Z,0
2018-01-26T02:36:29.859Z,0
2018-01-26T02:37:29.831Z,0
2018-01-26T02:38:30.059Z,0
2018-01-26T02:39:29.776Z,0
2018-01-26T02:40:30.000Z,0
2018-01-26T02:41:29.733Z,0
2018-01-26T02:42:29.943Z,0
2018-01-26T02:43:29.934Z,0
2018-01-26T02:44:29.900Z,0
2018-01-26T02:45:29.626Z,0
2018-01-26T02:46:29.610Z,0
2018-01-26T02:47:29.581Z,0
2018-01-26T02:48:29.823Z,0
2018-01-26T02:49:29.814Z,0
2018-01-26T02:50:29.745Z,0
2018-01-26T02:51:29.723Z,0
2018-01-26T02:52:29.446Z,0
2018-01-26T02:53:29.664Z,0
2018-01-26T02:54:29.416Z,0
2018-01-26T02:55:29.672Z,0
2018-01-26T02:56:29.585Z,0
2018-01-26T02:57:29.614Z,0
2018-01-26T02:58:29.535Z,0
2018-01-26T02:59:29.017Z,0
2018-01-26T03:00:29.647Z,0
2018-01-26T03:01:28.958Z,0
2018-01-26T03:02:29.530Z,0
2018-01-26T03:03:29.404Z,0
2018-01-26T03:04:29.384Z,0
2018-01-26T03:05:29.106Z,0
2018-01-26T03:06:29.341Z,0
2018-01-26T03:07:29.297Z,0
2018-01-26T03:08:29.268Z,0
2018-01-26T03:09:29.006Z,0
2018-01-26T03:10:29.220Z,0
2018-01-26T03:11:28.958Z,0
2018-01-26T03:12:28.919Z,0
2018-01-26T03:13:29.149Z,0
2018-01-26T03:14:29.124Z,0
2018-01-26T03:15:28.846Z,0
2018-01-26T03:16:28.822Z,0
2018-01-26T03:17:29.043Z,0
2018-01-26T03:18:29.020Z,0
2018-01-26T03:19:28.995Z,0
2018-01-26T03:20:28.962Z,0
2018-01-26T03:21:28.940Z,0
2018-01-26T03:22:28.668Z,0
2018-01-26T03:23:28.878Z,0
2018-01-26T03:24:28.859Z,0
2018-01-26T03:25:28.589Z,0
2018-01-26T03:26:28.810Z,0
2018-01-26T03:27:28.290Z,0
2018-01-26T03:28:28.512Z,0
2018-01-26T03:29:28.752Z,0
2018-01-26T03:30:28.717Z,0
2018-01-26T03:31:28.693Z,0
2018-01-26T03:32:28.407Z,0
2018-01-26T03:33:28.635Z,0
2018-01-26T03:34:28.607Z,0
2018-01-26T03:35:28.574Z,0
2018-01-26T03:36:28.550Z,0
2018-01-26T03:37:28.525Z,0
2018-01-26T03:38:28.564Z,0
2018-01-26T03:39:28.227Z,0
2018-01-26T03:40:28.448Z,0
2018-01-26T03:41:28.432Z,0
2018-01-26T03:42:28.393Z,0
2018-01-26T03:43:28.126Z,0
2018-01-26T03:44:28.102Z,0
2018-01-26T03:45:28.070Z,0
2018-01-26T03:46:28.047Z,0
2018-01-26T03:47:28.023Z,0
2018-01-26T03:48:28.334Z,0
2018-01-26T03:49:27.970Z,0
2018-01-26T03:50:28.186Z,0
2018-01-26T03:51:28.163Z,0
2018-01-26T03:52:28.134Z,0
2018-01-26T03:53:28.113Z,0
2018-01-26T03:54:28.086Z,0
2018-01-26T03:55:28.059Z,0
2018-01-26T03:56:27.792Z,0
2018-01-26T03:57:27.520Z,0
2018-01-26T03:58:27.995Z,0
2018-01-26T03:59:27.707Z,0
2018-01-26T04:00:27.932Z,0
2018-01-26T04:01:27.418Z,0
2018-01-26T04:02:27.882Z,0
2018-01-26T04:03:27.853Z,0
2018-01-26T04:04:27.584Z,0
2018-01-26T04:05:27.801Z,0
2018-01-26T04:06:27.787Z,0
2018-01-26T04:07:27.753Z,0
2018-01-26T04:08:27.729Z,0
2018-01-26T04:09:27.450Z,0
2018-01-26T04:10:27.426Z,0
2018-01-26T04:11:27.652Z,0
2018-01-26T04:12:27.376Z,0
2018-01-26T04:13:27.596Z,0
2018-01-26T04:14:27.324Z,0
2018-01-26T04:15:27.294Z,0
2018-01-26T04:16:27.516Z,0
2018-01-26T04:17:27.252Z,0
2018-01-26T04:18:27.467Z,0
2018-01-26T04:19:27.443Z,0
2018-01-26T04:20:27.416Z,0
2018-01-26T04:21:27.136Z,0
2018-01-26T04:22:27.371Z,0
2018-01-26T04:23:27.350Z,0
2018-01-26T04:24:26.818Z,0
2018-01-26T04:25:27.290Z,0
2018-01-26T04:26:27.013Z,0
2018-01-26T04:27:27.289Z,0
2018-01-26T04:28:26.719Z,0
2018-01-26T04:29:27.184Z,0
2018-01-26T04:30:26.918Z,0
2018-01-26T04:31:26.888Z,0
2018-01-26T04:32:26.617Z,0
2018-01-26T04:33:27.081Z,0
2018-01-26T04:34:26.809Z,0
2018-01-26T04:35:26.784Z,0
2018-01-26T04:36:26.756Z,0
2018-01-26T04:37:26.735Z,0
2018-01-26T04:38:26.764Z,0
2018-01-26T04:39:26.683Z,0
2018-01-26T04:40:26.658Z,0
2018-01-26T04:41:26.874Z,0
2018-01-26T04:42:26.847Z,0
2018-01-26T04:43:26.582Z,0
2018-01-26T04:44:26.793Z,0
2018-01-26T04:45:26.529Z,0
2018-01-26T04:46:26.748Z,0
2018-01-26T04:47:26.229Z,0
2018-01-26T04:48:26.447Z,0
2018-01-26T04:49:26.670Z,0
2018-01-26T04:50:26.404Z,0
2018-01-26T04:51:26.619Z,0
2018-01-26T04:52:26.594Z,0
2018-01-26T04:53:26.568Z,0
2018-01-26T04:54:26.288Z,0
2018-01-26T04:55:26.514Z,0
2018-01-26T04:56:26.484Z,0
2018-01-26T04:57:26.462Z,0
2018-01-26T04:58:25.942Z,0
2018-01-26T04:59:26.161Z,0
2018-01-26T05:00:26.235Z,0
2018-01-26T05:01:26.365Z,0
2018-01-26T05:02:26.141Z,0
2018-01-26T05:03:26.059Z,0
2018-01-26T05:04:26.282Z,0
2018-01-26T05:05:26.257Z,0
2018-01-26T05:06:26.228Z,0
2018-01-26T05:07:25.710Z,0
2018-01-26T05:08:26.174Z,0
2018-01-26T05:09:25.906Z,0
2018-01-26T05:10:26.134Z,0
2018-01-26T05:11:26.131Z,0
2018-01-26T05:12:26.082Z,0
2018-01-26T05:13:26.049Z,0
2018-01-26T05:14:25.781Z,0
2018-01-26T05:15:25.506Z,0
2018-01-26T05:16:25.972Z,0
2018-01-26T05:17:25.943Z,0
2018-01-26T05:18:25.920Z,0
2018-01-26T05:19:25.648Z,0
2018-01-26T05:20:25.375Z,0
2018-01-26T05:21:25.593Z,0
2018-01-26T05:22:25.569Z,0
2018-01-26T05:23:25.783Z,0
2018-01-26T05:24:25.563Z,0
2018-01-26T05:25:25.491Z,0
2018-01-26T05:26:24.974Z,0
2018-01-26T05:27:25.197Z,0
2018-01-26T05:28:25.409Z,0
2018-01-26T05:29:25.386Z,0
2018-01-26T05:30:25.361Z,0
2018-01-26T05:31:25.333Z,0
2018-01-26T05:32:25.552Z,0
2018-01-26T05:33:25.524Z,0
2018-01-26T05:34:25.513Z,0
2018-01-26T05:35:25.483Z,0
2018-01-26T05:36:24.969Z,0
2018-01-26T05:37:25.424Z,0
2018-01-26T05:38:25.536Z,0
2018-01-26T05:39:25.374Z,0
2018-01-26T05:40:25.349Z,0
2018-01-26T05:41:25.076Z,0
2018-01-26T05:42:25.294Z,0
2018-01-26T05:43:25.029Z,0
2018-01-26T05:44:25.000Z,0
2018-01-26T05:45:25.017Z,0
2018-01-26T05:46:25.196Z,0
2018-01-26T05:47:24.926Z,0
2018-01-26T05:48:24.889Z,0
2018-01-26T05:49:25.114Z,0
2018-01-26T05:50:25.091Z,0
2018-01-26T05:51:24.818Z,0
2018-01-26T05:52:25.041Z,0
2018-01-26T05:53:25.017Z,0
2018-01-26T05:54:24.990Z,0
2018-01-26T05:55:24.226Z,0
2018-01-26T05:56:24.689Z,0
2018-01-26T05:57:25.085Z,0
2018-01-26T05:58:24.642Z,0
2018-01-26T05:59:24.502Z,0
2018-01-26T06:00:24.837Z,0
2018-01-26T06:01:24.318Z,0
2018-01-26T06:02:24.536Z,0
2018-01-26T06:03:24.265Z,0
2018-01-26T06:04:24.488Z,0
2018-01-26T06:05:24.702Z,0
2018-01-26T06:06:24.429Z,0
2018-01-26T06:07:24.401Z,0
2018-01-26T06:08:24.140Z,0
2018-01-26T06:09:24.600Z,0
2018-01-26T06:10:24.580Z,0
2018-01-26T06:11:24.052Z,0
2018-01-26T06:12:24.294Z,0
2018-01-26T06:13:24.494Z,0
2018-01-26T06:14:24.223Z,0
2018-01-26T06:15:24.446Z,0
2018-01-26T06:16:24.179Z,0
2018-01-26T06:17:23.901Z,0
2018-01-26T06:18:24.125Z,0
2018-01-26T06:19:24.358Z,0
2018-01-26T06:20:24.311Z,0
2018-01-26T06:21:24.281Z,0
2018-01-26T06:22:24.266Z,0
2018-01-26T06:23:23.993Z,0
2018-01-26T06:24:24.217Z,0
2018-01-26T06:25:23.933Z,0
2018-01-26T06:26:23.909Z,0
2018-01-26T06:27:23.915Z,0
2018-01-26T06:28:24.110Z,0
2018-01-26T06:29:24.089Z,0
2018-01-26T06:30:24.056Z,0
2018-01-26T06:31:24.032Z,0
2018-01-26T06:32:23.593Z,0
2018-01-26T06:33:24.050Z,0
2018-01-26T06:34:24.674Z,0
2018-01-26T06:35:24.041Z,0
2018-01-26T06:36:25.243Z,0
2018-01-26T06:37:25.037Z,0
2018-01-26T06:38:23.848Z,0
2018-01-26T06:39:23.823Z,0
2018-01-26T06:40:23.800Z,0
2018-01-26T06:41:23.528Z,0
2018-01-26T06:42:23.746Z,0
2018-01-26T06:43:23.716Z,0
2018-01-26T06:44:23.251Z,0
2018-01-26T06:45:23.422Z,0
2018-01-26T06:46:23.743Z,0
2018-01-26T06:47:23.371Z,0
2018-01-26T06:48:22.846Z,0
2018-01-26T06:49:23.329Z,0
2018-01-26T06:50:23.049Z,0
2018-01-26T06:51:23.512Z,0
2018-01-26T06:52:23.508Z,0
2018-01-26T06:53:22.967Z,0
2018-01-26T06:54:23.459Z,0
2018-01-26T06:55:23.161Z,0
2018-01-26T06:56:23.136Z,0
2018-01-26T06:57:23.359Z,0
2018-01-26T06:58:22.838Z,0
2018-01-26T06:59:23.301Z,0
2018-01-26T07:00:23.281Z,0
2018-01-26T07:01:23.861Z,0
2018-01-26T07:02:22.738Z,0
2018-01-26T07:03:22.955Z,0
2018-01-26T07:04:23.382Z,0
2018-01-26T07:05:23.286Z,0
2018-01-26T07:06:23.211Z,0
2018-01-26T07:07:22.363Z,0
2018-01-26T07:08:22.838Z,5
2018-01-26T07:09:22.515Z,5
2018-01-26T07:10:22.562Z,5
2018-01-26T07:11:22.745Z,5
2018-01-26T07:12:22.920Z,5
2018-01-26T07:13:23.001Z,5
2018-01-26T07:14:22.439Z,5
2018-01-26T07:15:22.389Z,10
2018-01-26T07:16:23.151Z,10
2018-01-26T07:17:22.807Z,10
2018-01-26T07:18:22.504Z,10
2018-01-26T07:19:23.277Z,10
2018-01-26T07:20:23.789Z,10
2018-01-26T07:21:24.348Z,15
2018-01-26T07:22:24.348Z,15
2018-01-26T07:23:25.256Z,15
2018-01-26T07:24:23.139Z,15
2018-01-26T07:25:22.952Z,15
2018-01-26T07:26:22.519Z,15
2018-01-26T07:27:22.539Z,15
2018-01-26T07:28:22.502Z,15
2018-01-26T07:29:22.496Z,15
2018-01-26T07:30:23.894Z,15
2018-01-26T07:31:22.693Z,20
2018-01-26T07:32:22.614Z,20
2018-01-26T07:33:24.049Z,20
2018-01-26T07:34:25.155Z,20
2018-01-26T07:35:24.900Z,20
2018-01-26T07:36:24.383Z,25
2018-01-26T07:37:25.617Z,25
2018-01-26T07:38:22.272Z,25
2018-01-26T07:39:22.766Z,25
2018-01-26T07:40:23.766Z,30
2018-01-26T07:41:22.221Z,30
2018-01-26T07:42:22.105Z,35
2018-01-26T07:43:22.581Z,35
2018-01-26T07:44:25.677Z,40
2018-01-26T07:45:23.621Z,40
2018-01-26T07:46:22.150Z,40
2018-01-26T07:47:22.105Z,45
2018-01-26T07:48:26.240Z,50
2018-01-26T07:49:22.104Z,50
2018-01-26T07:50:22.898Z,55
2018-01-26T07:51:21.746Z,55
2018-01-26T07:52:22.179Z,60
2018-01-26T07:53:21.902Z,60
2018-01-26T07:54:22.994Z,65
2018-01-26T07:55:21.973Z,70
2018-01-26T07:56:23.782Z,75
2018-01-26T07:57:21.556Z,75
2018-01-26T07:58:22.181Z,75
2018-01-26T07:59:22.715Z,75
2018-01-26T08:00:26.333Z,80
2018-01-26T08:01:21.514Z,80
2018-01-26T08:02:22.314Z,85
2018-01-26T08:03:21.445Z,90
2018-01-26T08:04:25.719Z,100
2018-01-26T08:05:25.075Z,105
2018-01-26T08:06:21.580Z,110
2018-01-26T08:07:21.291Z,115
2018-01-26T08:08:21.784Z,120
2018-01-26T08:09:21.629Z,125
2018-01-26T08:10:21.607Z,130
2018-01-26T08:11:21.602Z,135
2018-01-26T08:12:21.705Z,140
2018-01-26T08:13:21.394Z,145
2018-01-26T08:14:21.246Z,140
2018-01-26T08:15:22.306Z,130
2018-01-26T08:16:21.579Z,120
2018-01-26T08:17:21.396Z,110
2018-01-26T08:18:22.618Z,100
2018-01-26T08:19:21.512Z,100
2018-01-26T08:20:21.431Z,105
2018-01-26T08:21:22.774Z,105
2018-01-26T08:22:21.655Z,105
2018-01-26T08:23:20.738Z,110
2018-01-26T08:24:23.107Z,110
2018-01-26T08:25:21.077Z,115
2018-01-26T08:26:21.169Z,115
2018-01-26T08:27:21.506Z,120
2018-01-26T08:28:22.055Z,120
2018-01-26T08:29:20.831Z,125
2018-01-26T08:30:20.955Z,130
2018-01-26T08:31:23.462Z,130
2018-01-26T08:32:22.005Z,135
2018-01-26T08:33:20.882Z,135
2018-01-26T08:34:21.157Z,140
2018-01-26T08:35:22.332Z,145
2018-01-26T08:36:20.310Z,150
2018-01-26T08:37:20.991Z,170
2018-01-26T08:38:20.882Z,185
2018-01-26T08:39:20.996Z,200
2018-01-26T08:40:20.531Z,210
2018-01-26T08:41:20.492Z,220
2018-01-26T08:42:19.919Z,235
2018-01-26T08:43:21.489Z,250
2018-01-26T08:44:20.650Z,255
2018-01-26T08:45:20.417Z,255
2018-01-26T08:46:20.549Z,255
2018-01-26T08:47:20.531Z,250
2018-01-26T08:48:20.570Z,245
2018-01-26T08:49:21.115Z,240
2018-01-26T08:50:20.730Z,240
2018-01-26T08:51:22.897Z,250
2018-01-26T08:52:23.041Z,260
2018-01-26T08:53:21.951Z,275
2018-01-26T08:54:22.161Z,295
2018-01-26T08:55:21.538Z,320
2018-01-26T08:56:22.228Z,345
2018-01-26T08:57:22.922Z,355
2018-01-26T08:58:21.007Z,355
2018-01-26T08:59:22.609Z,360
2018-01-26T09:00:20.851Z,345
2018-01-26T09:01:20.197Z,330
2018-01-26T09:02:19.915Z,305
2018-01-26T09:03:19.891Z,295
2018-01-26T09:04:20.150Z,285
2018-01-26T09:05:20.096Z,290
2018-01-26T09:06:19.648Z,285
2018-01-26T09:07:20.158Z,285
2018-01-26T09:08:19.525Z,280
2018-01-26T09:09:19.494Z,280
2018-01-26T09:10:19.964Z,275
2018-01-26T09:11:19.699Z,275
2018-01-26T09:12:19.914Z,280
2018-01-26T09:13:19.646Z,290
2018-01-26T09:14:19.870Z,300
2018-01-26T09:15:19.603Z,305
2018-01-26T09:16:19.580Z,305
2018-01-26T09:17:19.850Z,305
2018-01-26T09:18:19.349Z,305
2018-01-26T09:19:19.503Z,305
2018-01-26T09:20:19.724Z,310
2018-01-26T09:21:19.712Z,315
2018-01-26T09:22:19.678Z,325
2018-01-26T09:23:19.704Z,330
2018-01-26T09:24:19.640Z,340
2018-01-26T09:25:19.366Z,345
2018-01-26T09:26:19.337Z,350
2018-01-26T09:27:19.308Z,360
2018-01-26T09:28:18.805Z,370
2018-01-26T09:29:19.021Z,375
2018-01-26T09:30:18.999Z,375
2018-01-26T09:31:19.246Z,380
2018-01-26T09:32:19.452Z,380
2018-01-26T09:33:19.423Z,385
2018-01-26T09:34:19.403Z,395
2018-01-26T09:35:19.122Z,405
2018-01-26T09:36:19.356Z,410
2018-01-26T09:37:18.827Z,405
2018-01-26T09:38:18.814Z,390
2018-01-26T09:39:19.034Z,380
2018-01-26T09:40:19.262Z,370
2018-01-26T09:41:18.743Z,380
2018-01-26T09:42:19.206Z,400
2018-01-26T09:43:18.940Z,430
2018-01-26T09:44:19.154Z,450
2018-01-26T09:45:18.942Z,460
2018-01-26T09:46:19.113Z,465
2018-01-26T09:47:19.093Z,470
2018-01-26T09:48:18.823Z,475
2018-01-26T09:49:18.307Z,470
2018-01-26T09:50:19.031Z,470
2018-01-26T09:51:18.840Z,460
2018-01-26T09:52:19.876Z,450
2018-01-26T09:53:18.705Z,440
2018-01-26T09:54:18.442Z,440
2018-01-26T09:55:18.657Z,435
2018-01-26T09:56:18.682Z,440
2018-01-26T09:57:18.615Z,455
2018-01-26T09:58:18.831Z,465
2018-01-26T09:59:18.575Z,480
2018-01-26T10:00:18.923Z,480
2018-01-26T10:01:18.520Z,480
2018-01-26T10:02:18.500Z,475
2018-01-26T10:03:18.476Z,475
2018-01-26T10:04:18.454Z,470
2018-01-26T10:05:18.481Z,470
2018-01-26T10:06:18.272Z,470
2018-01-26T10:07:18.628Z,465
2018-01-26T10:08:18.607Z,460
2018-01-26T10:09:18.543Z,460
2018-01-26T10:10:18.355Z,450
2018-01-26T10:11:18.294Z,440
2018-01-26T10:12:18.776Z,430
2018-01-26T10:13:18.249Z,430
2018-01-26T10:14:18.224Z,425
2018-01-26T10:15:18.447Z,425
2018-01-26T10:16:18.445Z,425
2018-01-26T10:17:17.662Z,425
2018-01-26T10:18:18.758Z,420
2018-01-26T10:19:17.875Z,415
2018-01-26T10:20:18.337Z,410
2018-01-26T10:21:18.651Z,405
2018-01-26T10:22:17.556Z,405
2018-01-26T10:23:18.267Z,405
2018-01-26T10:24:18.004Z,405
2018-01-26T10:25:18.214Z,395
2018-01-26T10:26:17.460Z,395
2018-01-26T10:27:18.171Z,390
2018-01-26T10:28:18.253Z,385
2018-01-26T10:29:17.888Z,390
2018-01-26T10:30:17.860Z,395
2018-01-26T10:31:17.839Z,400
2018-01-26T10:32:17.809Z,395
2018-01-26T10:33:17.791Z,395
2018-01-26T10:34:17.767Z,395
2018-01-26T10:35:17.794Z,390
2018-01-26T10:36:17.974Z,385
2018-01-26T10:37:18.701Z,385
2018-01-26T10:38:18.418Z,380
2018-01-26T10:39:17.570Z,375
2018-01-26T10:40:17.876Z,375
2018-01-26T10:41:17.744Z,375
2018-01-26T10:42:17.941Z,375
2018-01-26T10:43:17.603Z,375
2018-01-26T10:44:17.923Z,375
2018-01-26T10:45:17.266Z,380
2018-01-26T10:46:17.253Z,385
2018-01-26T10:47:17.477Z,395
2018-01-26T10:48:17.694Z,410
2018-01-26T10:49:17.420Z,405
2018-01-26T10:50:17.400Z,410
2018-01-26T10:51:17.630Z,425
2018-01-26T10:52:17.366Z,425
2018-01-26T10:53:17.335Z,420
2018-01-26T10:54:17.338Z,425
2018-01-26T10:55:17.041Z,430
2018-01-26T10:56:17.522Z,425
2018-01-26T10:57:17.488Z,425
2018-01-26T10:58:16.970Z,420
2018-01-26T10:59:17.444Z,415
2018-01-26T11:00:17.420Z,425
2018-01-26T11:01:17.152Z,420
2018-01-26T11:02:17.377Z,410
2018-01-26T11:03:17.357Z,410
2018-01-26T11:04:17.082Z,410
2018-01-26T11:05:16.812Z,385
2018-01-26T11:06:17.284Z,370
2018-01-26T11:07:17.018Z,360
2018-01-26T11:08:17.284Z,365
2018-01-26T11:09:17.214Z,380
2018-01-26T11:10:16.946Z,395
2018-01-26T11:11:17.170Z,405
2018-01-26T11:12:16.894Z,405
2018-01-26T11:13:17.122Z,405
2018-01-26T11:14:16.618Z,405
2018-01-26T11:15:16.829Z,410
2018-01-26T11:16:16.311Z,410
2018-01-26T11:17:16.782Z,425
2018-01-26T11:18:16.764Z,435
2018-01-26T11:19:16.738Z,435
2018-01-26T11:20:17.045Z,430
2018-01-26T11:21:16.937Z,415
2018-01-26T11:22:16.919Z,405
2018-01-26T11:23:16.894Z,400
2018-01-26T11:24:16.879Z,410
2018-01-26T11:25:16.606Z,430
2018-01-26T11:26:16.582Z,450
2018-01-26T11:27:16.310Z,465
2018-01-26T11:28:16.534Z,485
2018-01-26T11:29:16.769Z,505
2018-01-26T11:30:16.734Z,515
2018-01-26T11:31:16.717Z,540
2018-01-26T11:32:16.683Z,560
2018-01-26T11:33:16.167Z,560
2018-01-26T11:34:16.395Z,560
2018-01-26T11:35:16.623Z,555
2018-01-26T11:36:16.353Z,550
2018-01-26T11:37:16.129Z,545
2018-01-26T11:38:16.552Z,535
2018-01-26T11:39:16.092Z,535
2018-01-26T11:40:16.506Z,530
2018-01-26T11:41:16.006Z,520
2018-01-26T11:42:16.217Z,505
2018-01-26T11:43:16.192Z,500
2018-01-26T11:44:16.416Z,495
2018-01-26T11:45:16.394Z,495
2018-01-26T11:46:16.126Z,495
2018-01-26T11:47:16.348Z,485
2018-01-26T11:48:16.081Z,480
2018-01-26T11:49:16.073Z,485
2018-01-26T11:50:16.046Z,495
2018-01-26T11:51:16.029Z,505
2018-01-26T11:52:15.994Z,520
2018-01-26T11:53:15.973Z,525
2018-01-26T11:54:16.194Z,510
2018-01-26T11:55:15.923Z,500
2018-01-26T11:56:15.909Z,500
2018-01-26T11:57:15.633Z,505
2018-01-26T11:58:15.372Z,515
2018-01-26T11:59:15.841Z,520
2018-01-26T12:00:15.817Z,530
2018-01-26T12:01:15.554Z,535
2018-01-26T12:02:15.525Z,530
2018-01-26T12:03:15.254Z,530
2018-01-26T12:04:15.832Z,530
2018-01-26T12:05:15.455Z,520
2018-01-26T12:06:15.680Z,515
2018-01-26T12:07:15.954Z,510
2018-01-26T12:08:15.645Z,520
2018-01-26T12:09:15.621Z,530
2018-01-26T12:10:15.592Z,535
2018-01-26T12:11:15.326Z,525
2018-01-26T12:12:15.325Z,520
2018-01-26T12:13:15.764Z,520
2018-01-26T12:14:15.752Z,540
2018-01-26T12:15:15.482Z,555
2018-01-26T12:16:15.966Z,585
2018-01-26T12:17:15.437Z,615
2018-01-26T12:18:15.737Z,615
2018-01-26T12:19:15.394Z,605
2018-01-26T12:20:15.125Z,575
2018-01-26T12:21:15.593Z,550
2018-01-26T12:22:15.084Z,520
2018-01-26T12:23:15.311Z,505
2018-01-26T12:24:15.543Z,495
2018-01-26T12:25:15.509Z,500
2018-01-26T12:26:14.753Z,510
2018-01-26T12:27:15.215Z,505
2018-01-26T12:28:14.979Z,490
2018-01-26T12:29:14.926Z,490
2018-01-26T12:30:15.253Z,495
2018-01-26T12:31:15.376Z,510
2018-01-26T12:32:15.356Z,530
2018-01-26T12:33:15.090Z,530
2018-01-26T12:34:14.815Z,520
2018-01-26T12:35:15.042Z,500
2018-01-26T12:36:15.034Z,480
2018-01-26T12:37:15.001Z,470
2018-01-26T12:38:15.224Z,465
2018-01-26T12:39:15.195Z,465
2018-01-26T12:40:14.923Z,465
2018-01-26T12:41:15.160Z,475
2018-01-26T12:42:14.447Z,475
2018-01-26T12:43:14.867Z,480
2018-01-26T12:44:15.089Z,475
2018-01-26T12:45:15.059Z,470
2018-01-26T12:46:14.560Z,460
2018-01-26T12:47:14.526Z,450
2018-01-26T12:48:14.747Z,430
2018-01-26T12:49:14.487Z,425
2018-01-26T12:50:14.719Z,420
2018-01-26T12:51:14.438Z,420
2018-01-26T12:52:14.422Z,420
2018-01-26T12:53:14.887Z,420
2018-01-26T12:54:14.629Z,420
2018-01-26T12:55:14.356Z,420
2018-01-26T12:56:14.324Z,415
2018-01-26T12:57:14.547Z,420
2018-01-26T12:58:14.535Z,425
2018-01-26T12:59:14.751Z,425
2018-01-26T13:00:14.486Z,440
2018-01-26T13:01:14.214Z,440
2018-01-26T13:02:14.492Z,440
2018-01-26T13:03:13.933Z,440
2018-01-26T13:04:14.642Z,435
2018-01-26T13:05:14.620Z,430
2018-01-26T13:06:15.531Z,425
2018-01-26T13:07:15.254Z,430
2018-01-26T13:08:14.309Z,425
2018-01-26T13:09:14.956Z,425
2018-01-26T13:10:14.370Z,430
2018-01-26T13:11:14.653Z,435
2018-01-26T13:12:16.424Z,435
2018-01-26T13:13:14.189Z,440
2018-01-26T13:14:13.947Z,435
2018-01-26T13:15:13.925Z,435
2018-01-26T13:16:15.007Z,430
2018-01-26T13:17:14.128Z,430
2018-01-26T13:18:14.329Z,425
2018-01-26T13:19:14.849Z,425
2018-01-26T13:20:16.036Z,430
2018-01-26T13:21:15.322Z,430
2018-01-26T13:22:13.738Z,440
2018-01-26T13:23:13.721Z,435
2018-01-26T13:24:13.936Z,435
2018-01-26T13:25:13.670Z,425
2018-01-26T13:26:14.149Z,410
2018-01-26T13:27:14.125Z,390
2018-01-26T13:28:15.111Z,380
2018-01-26T13:29:16.457Z,370
2018-01-26T13:30:16.846Z,360
2018-01-26T13:31:17.627Z,355
2018-01-26T13:32:17.172Z,345
2018-01-26T13:33:15.692Z,335
2018-01-26T13:34:17.371Z,330
2018-01-26T13:35:16.624Z,335
2018-01-26T13:36:15.539Z,340
2018-01-26T13:37:15.419Z,350
2018-01-26T13:38:15.349Z,355
2018-01-26T13:39:13.923Z,360
2018-01-26T13:40:16.486Z,365
2018-01-26T13:41:13.761Z,365
2018-01-26T13:42:13.782Z,365
2018-01-26T13:43:13.521Z,360
2018-01-26T13:44:13.249Z,340
2018-01-26T13:45:13.467Z,315
2018-01-26T13:46:13.689Z,295
2018-01-26T13:47:13.674Z,280
2018-01-26T13:48:13.404Z,280
2018-01-26T13:49:12.886Z,275
2018-01-26T13:50:13.604Z,280
2018-01-26T13:51:13.331Z,295
2018-01-26T13:52:13.057Z,290
2018-01-26T13:53:13.284Z,290
2018-01-26T13:54:13.513Z,285
2018-01-26T13:55:13.477Z,285
2018-01-26T13:56:12.968Z,295
2018-01-26T13:57:13.195Z,305
2018-01-26T13:58:13.173Z,305
2018-01-26T13:59:13.144Z,310
2018-01-26T14:00:13.378Z,315
2018-01-26T14:01:13.342Z,315
2018-01-26T14:02:13.075Z,310
2018-01-26T14:03:13.302Z,300
2018-01-26T14:04:13.034Z,295
2018-01-26T14:05:13.267Z,290
2018-01-26T14:06:12.737Z,290
2018-01-26T14:07:12.718Z,275
2018-01-26T14:08:12.449Z,280
2018-01-26T14:09:12.677Z,280
2018-01-26T14:10:12.946Z,280
2018-01-26T14:11:13.119Z,270
2018-01-26T14:12:12.886Z,260
2018-01-26T14:13:12.577Z,250
2018-01-26T14:14:12.562Z,250
2018-01-26T14:15:12.780Z,245
2018-01-26T14:16:12.511Z,240
2018-01-26T14:17:12.729Z,235